createdAt,value
2022-09-03T00:01:25.405Z,92.00
2022-09-03T00:04:02.088Z,92.00
2022-09-03T00:06:38.259Z,92.00
2022-09-03T00:09:09.347Z,92.30
2022-09-03T00:11:54.873Z,92.60
2022-09-03T00:14:24.237Z,93.00
2022-09-03T00:16:54.186Z,93.60
2022-09-03T00:19:33.515Z,93.50
2022-09-03T00:22:02.933Z,93.80
2022-09-03T00:24:33.827Z,93.90
2022-09-03T00:27:02.683Z,94.00
2022-09-03T00:29:43.755Z,94.10
2022-09-03T00:32:22.665Z,94.30
2022-09-03T00:34:51.938Z,95.00
2022-09-03T00:37:20.378Z,94.60
2022-09-03T00:39:47.167Z,94.50
2022-09-03T00:42:20.981Z,95.30
2022-09-03T00:45:00.946Z,95.90
2022-09-03T00:47:31.823Z,95.20
2022-09-03T00:50:05.208Z,95.30
2022-09-03T00:52:38.235Z,95.00
2022-09-03T00:55:04.936Z,95.00
2022-09-03T00:57:49.717Z,95.00
2022-09-03T01:00:17.438Z,95.50
2022-09-03T01:02:46.911Z,96.30
2022-09-03T01:05:22.992Z,97.00
2022-09-03T01:08:01.972Z,96.20
2022-09-03T01:10:31.809Z,97.50
2022-09-03T01:13:11.036Z,98.60
2022-09-03T01:16:01.919Z,97.80
2022-09-03T01:18:34.891Z,95.90
2022-09-03T01:21:20.385Z,95.20
2022-09-03T01:24:07.549Z,96.90
2022-09-03T01:26:34.223Z,95.70
2022-09-03T01:29:12.006Z,97.70
2022-09-03T01:32:10.948Z,98.50
2022-09-03T01:34:43.825Z,99.50
2022-09-03T01:37:36.616Z,99.90
2022-09-03T01:40:22.255Z,98.80
2022-09-03T01:43:09.154Z,98.20
2022-09-03T01:45:35.829Z,99.10
2022-09-03T01:48:06.078Z,99.80
2022-09-03T01:50:36.004Z,98.50
2022-09-03T01:53:07.604Z,98.00
2022-09-03T01:55:44.370Z,97.10
2022-09-03T01:58:23.053Z,97.40
2022-09-03T02:00:51.999Z,99.70
2022-09-03T02:03:19.036Z,99.90
2022-09-03T02:05:46.989Z,99.90
2022-09-03T02:08:13.879Z,99.90
2022-09-03T02:10:45.421Z,99.90
2022-09-03T02:13:15.863Z,99.90
2022-09-03T02:15:45.807Z,99.90
2022-09-03T02:18:17.887Z,99.90
2022-09-03T02:20:45.091Z,99.90
2022-09-03T02:23:11.751Z,99.90
2022-09-03T02:25:40.322Z,99.90
2022-09-03T02:28:16.643Z,99.90
2022-09-03T02:30:44.996Z,99.90
2022-09-03T02:33:11.877Z,99.90
2022-09-03T02:35:40.470Z,99.90
2022-09-03T02:38:11.547Z,99.90
2022-09-03T02:40:39.624Z,99.90
2022-09-03T02:43:08.148Z,99.90
2022-09-03T02:45:37.358Z,99.90
2022-09-03T02:48:04.066Z,99.90
2022-09-03T02:50:30.879Z,99.90
2022-09-03T02:52:57.601Z,99.90
2022-09-03T02:55:24.398Z,99.90
2022-09-03T02:57:51.568Z,99.90
2022-09-03T03:00:18.321Z,99.90
2022-09-03T03:02:45.974Z,99.90
2022-09-03T03:05:17.655Z,99.90
2022-09-03T03:07:44.323Z,99.90
2022-09-03T03:10:10.986Z,99.90
2022-09-03T03:12:37.920Z,99.90
2022-09-03T03:15:04.745Z,99.90
2022-09-03T03:17:31.739Z,99.90
2022-09-03T03:19:58.460Z,99.90
2022-09-03T03:22:25.177Z,99.90
2022-09-03T03:24:52.826Z,99.90
2022-09-03T03:27:19.704Z,99.90
2022-09-03T03:29:46.391Z,99.90
2022-09-03T03:32:13.051Z,99.90
2022-09-03T03:34:40.063Z,99.90
2022-09-03T03:37:06.749Z,99.90
2022-09-03T03:39:33.531Z,99.90
2022-09-03T03:42:00.302Z,99.90
2022-09-03T03:44:26.941Z,99.90
2022-09-03T03:46:53.834Z,99.90
2022-09-03T03:49:20.509Z,99.90
2022-09-03T03:51:47.229Z,99.90
2022-09-03T03:54:17.513Z,99.90
2022-09-03T03:56:44.534Z,99.90
2022-09-03T03:59:17.559Z,99.90
2022-09-03T04:01:44.441Z,99.90
2022-09-03T04:04:11.194Z,99.90
2022-09-03T04:06:37.880Z,99.90
2022-09-03T04:09:04.576Z,99.90
2022-09-03T04:11:31.344Z,99.90
2022-09-03T04:13:58.102Z,99.90
2022-09-03T04:16:26.001Z,99.90
2022-09-03T04:18:53.515Z,99.90
2022-09-03T04:21:21.441Z,99.90
2022-09-03T04:23:48.857Z,99.90
2022-09-03T04:26:17.049Z,99.90
2022-09-03T04:28:44.723Z,99.90
2022-09-03T04:31:12.350Z,99.90
2022-09-03T04:33:39.730Z,99.90
2022-09-03T04:36:07.820Z,99.90
2022-09-03T04:38:35.653Z,99.90
2022-09-03T04:41:02.650Z,99.90
2022-09-03T04:43:29.512Z,99.90
2022-09-03T04:45:57.727Z,99.90
2022-09-03T04:48:24.574Z,99.90
2022-09-03T04:50:51.392Z,99.90
2022-09-03T04:53:18.083Z,99.90
2022-09-03T04:55:44.737Z,99.90
2022-09-03T04:58:11.503Z,99.90
2022-09-03T05:00:38.455Z,99.90
2022-09-03T05:03:05.283Z,99.90
2022-09-03T05:05:33.742Z,99.90
2022-09-03T05:08:04.148Z,99.90
2022-09-03T05:10:30.997Z,99.90
2022-09-03T05:12:58.603Z,99.90
2022-09-03T05:15:25.302Z,99.90
2022-09-03T05:17:55.722Z,99.90
2022-09-03T05:20:22.786Z,99.90
2022-09-03T05:22:49.461Z,99.90
2022-09-03T05:25:16.176Z,99.90
2022-09-03T05:27:43.130Z,99.90
2022-09-03T05:30:10.156Z,99.90
2022-09-03T05:32:36.803Z,99.90
2022-09-03T05:35:03.673Z,99.90
2022-09-03T05:37:30.311Z,99.90
2022-09-03T05:39:56.989Z,99.90
2022-09-03T05:42:23.673Z,99.90
2022-09-03T05:44:51.317Z,99.90
2022-09-03T05:47:18.019Z,99.90
2022-09-03T05:49:44.671Z,99.90
2022-09-03T05:52:11.314Z,99.90
2022-09-03T05:54:38.007Z,99.90
2022-09-03T05:57:05.273Z,99.90
2022-09-03T05:59:31.937Z,99.90
2022-09-03T06:02:00.280Z,99.90
2022-09-03T06:04:27.377Z,99.90
2022-09-03T06:06:54.043Z,99.90
2022-09-03T06:09:23.349Z,99.90
2022-09-03T06:11:50.789Z,99.90
2022-09-03T06:14:19.711Z,99.90
2022-09-03T06:16:49.719Z,99.90
2022-09-03T06:19:17.056Z,99.90
2022-09-03T06:21:44.280Z,99.90
2022-09-03T06:24:12.086Z,99.90
2022-09-03T06:26:39.395Z,99.90
2022-09-03T06:29:06.294Z,99.90
2022-09-03T06:31:33.036Z,99.60
2022-09-03T06:34:03.818Z,99.60
2022-09-03T06:36:31.056Z,99.20
2022-09-03T06:38:58.385Z,98.80
2022-09-03T06:41:26.418Z,98.30
2022-09-03T06:43:54.694Z,98.10
2022-09-03T06:46:22.495Z,98.70
2022-09-03T06:48:51.668Z,97.80
2022-09-03T06:51:20.035Z,97.60
2022-09-03T06:53:47.987Z,96.80
2022-09-03T06:56:16.954Z,96.70
2022-09-03T06:58:45.523Z,96.80
2022-09-03T07:01:17.107Z,96.70
2022-09-03T07:03:44.550Z,97.50
2022-09-03T07:06:12.783Z,97.90
2022-09-03T07:08:39.782Z,98.00
2022-09-03T07:11:12.715Z,98.10
2022-09-03T07:13:40.816Z,98.30
2022-09-03T07:16:09.013Z,98.50
2022-09-03T07:18:36.204Z,98.60
2022-09-03T07:21:04.445Z,98.00
2022-09-03T07:23:31.382Z,98.40
2022-09-03T07:25:59.141Z,98.60
2022-09-03T07:28:26.758Z,98.30
2022-09-03T07:30:54.190Z,98.90
2022-09-03T07:33:21.130Z,99.10
2022-09-03T07:35:47.848Z,98.90
2022-09-03T07:38:20.498Z,99.00
2022-09-03T07:40:47.254Z,99.20
2022-09-03T07:43:13.991Z,99.50
2022-09-03T07:45:41.253Z,99.60
2022-09-03T07:48:07.965Z,99.40
2022-09-03T07:50:39.192Z,99.30
2022-09-03T07:53:06.130Z,99.30
2022-09-03T07:55:32.811Z,98.90
2022-09-03T07:57:59.561Z,98.90
2022-09-03T08:00:26.327Z,98.90
2022-09-03T08:02:56.601Z,99.20
2022-09-03T08:05:23.342Z,98.70
2022-09-03T08:07:51.000Z,98.70
2022-09-03T08:10:17.772Z,98.90
2022-09-03T08:12:44.404Z,99.20
2022-09-03T08:15:11.345Z,99.20
2022-09-03T08:17:38.007Z,99.20
2022-09-03T08:20:04.875Z,99.40
2022-09-03T08:22:31.692Z,99.70
2022-09-03T08:24:58.406Z,99.80
2022-09-03T08:27:27.751Z,99.70
2022-09-03T08:29:54.722Z,99.70
2022-09-03T08:32:22.893Z,99.60
2022-09-03T08:34:50.747Z,99.00
2022-09-03T08:37:17.932Z,99.70
2022-09-03T08:39:44.991Z,99.70
2022-09-03T08:42:12.598Z,99.10
2022-09-03T08:44:56.807Z,98.60
2022-09-03T08:47:26.277Z,98.60
2022-09-03T08:50:02.461Z,97.80
2022-09-03T08:52:34.529Z,97.50
2022-09-03T08:55:21.502Z,97.50
2022-09-03T08:57:54.955Z,97.20
2022-09-03T09:00:21.631Z,97.60
2022-09-03T09:03:05.974Z,97.30
2022-09-03T09:05:47.276Z,97.10
2022-09-03T09:08:17.890Z,97.20
2022-09-03T09:10:47.080Z,96.40
2022-09-03T09:13:16.333Z,96.00
2022-09-03T09:15:54.779Z,94.70
2022-09-03T09:18:27.432Z,92.70
2022-09-03T09:21:02.891Z,90.90
2022-09-03T09:23:31.108Z,87.80
2022-09-03T09:25:59.642Z,86.00
2022-09-03T09:28:32.292Z,83.30
2022-09-03T09:31:01.630Z,80.80
2022-09-03T09:33:29.788Z,82.40
2022-09-03T09:36:00.058Z,79.90
2022-09-03T09:38:30.054Z,74.80
2022-09-03T09:40:58.262Z,74.00
2022-09-03T09:43:25.580Z,76.10
2022-09-03T09:45:53.526Z,76.00
2022-09-03T09:48:22.646Z,74.00
2022-09-03T09:50:49.517Z,72.00
2022-09-03T09:53:18.574Z,71.90
2022-09-03T09:56:03.760Z,70.30
2022-09-03T09:58:33.011Z,70.10
2022-09-03T10:01:13.247Z,68.40
2022-09-03T10:03:51.223Z,70.00
2022-09-03T10:06:36.699Z,71.60
2022-09-03T10:09:07.726Z,72.50
2022-09-03T10:11:37.022Z,73.50
2022-09-03T10:14:04.219Z,73.00
2022-09-03T10:16:35.050Z,74.10
2022-09-03T10:19:06.863Z,73.80
2022-09-03T10:21:43.546Z,72.60
2022-09-03T10:24:16.520Z,70.90
2022-09-03T10:26:45.902Z,72.80
2022-09-03T10:29:16.476Z,72.30
2022-09-03T10:31:47.266Z,68.30
2022-09-03T10:34:34.944Z,72.20
2022-09-03T10:37:19.678Z,69.40
2022-09-03T10:40:04.940Z,69.50
2022-09-03T10:42:42.106Z,70.20
2022-09-03T10:45:18.117Z,69.70
2022-09-03T10:48:00.097Z,70.50
2022-09-03T10:50:28.953Z,67.80
2022-09-03T10:53:07.658Z,67.80
2022-09-03T10:55:46.765Z,69.70
2022-09-03T10:58:25.671Z,69.10
2022-09-03T11:00:53.847Z,72.40
2022-09-03T11:03:26.949Z,72.70
2022-09-03T11:05:56.746Z,72.00
2022-09-03T11:08:26.387Z,72.80
2022-09-03T11:10:55.645Z,75.40
2022-09-03T11:13:26.740Z,75.00
2022-09-03T11:16:01.944Z,74.60
2022-09-03T11:18:36.172Z,74.40
2022-09-03T11:21:07.642Z,75.40
2022-09-03T11:23:39.800Z,75.80
2022-09-03T11:26:09.280Z,75.90
2022-09-03T11:28:45.411Z,76.10
2022-09-03T11:31:31.566Z,76.80
2022-09-03T11:34:09.334Z,76.20
2022-09-03T11:36:38.840Z,75.70
2022-09-03T11:39:20.876Z,76.70
2022-09-03T11:41:57.840Z,77.80
2022-09-03T11:44:24.783Z,78.80
2022-09-03T11:46:56.012Z,78.60
2022-09-03T11:49:30.506Z,79.50
2022-09-03T11:52:01.397Z,80.10
2022-09-03T11:54:28.247Z,81.00
2022-09-03T11:57:06.489Z,81.40
2022-09-03T11:59:33.120Z,82.10
2022-09-03T12:02:27.238Z,82.60
2022-09-03T12:04:56.983Z,83.90
2022-09-03T12:07:42.569Z,84.70
2022-09-03T12:10:12.236Z,87.40
2022-09-03T12:12:48.188Z,87.10
2022-09-03T12:15:23.524Z,88.80
2022-09-03T12:18:14.073Z,89.40
2022-09-03T12:20:41.426Z,91.00
2022-09-03T12:23:10.962Z,92.10
2022-09-03T12:25:45.251Z,93.30
2022-09-03T12:28:12.690Z,95.50
2022-09-03T12:30:39.540Z,95.80
2022-09-03T12:33:07.662Z,98.00
2022-09-03T12:38:25.415Z,99.90
2022-09-03T12:43:39.561Z,99.90
2022-09-03T12:46:14.116Z,99.90
2022-09-03T12:48:46.954Z,99.90
2022-09-03T12:54:01.291Z,99.90
2022-09-03T12:56:33.580Z,99.90
2022-09-03T12:59:03.516Z,99.90
2022-09-03T13:01:32.413Z,99.90
2022-09-03T13:04:03.209Z,99.90
2022-09-03T13:06:33.647Z,99.90
2022-09-03T13:09:08.138Z,99.90
2022-09-03T13:11:37.980Z,99.90
2022-09-03T13:14:12.025Z,99.90
2022-09-03T13:16:38.907Z,99.90
2022-09-03T13:19:24.328Z,99.90
2022-09-03T13:21:53.993Z,99.90
2022-09-03T13:24:39.481Z,99.90
2022-09-03T13:27:18.107Z,99.90
2022-09-03T13:29:49.292Z,99.90
2022-09-03T13:32:38.689Z,99.90
2022-09-03T13:35:14.639Z,99.90
2022-09-03T13:38:04.382Z,99.90
2022-09-03T13:40:49.833Z,99.90
2022-09-03T13:43:29.391Z,99.90
2022-09-03T13:46:06.166Z,99.90
2022-09-03T13:48:59.320Z,99.90
2022-09-03T13:51:29.790Z,99.90
2022-09-03T13:53:56.430Z,99.90
2022-09-03T13:56:44.534Z,99.90
2022-09-03T13:59:20.099Z,99.90
2022-09-03T14:02:04.936Z,99.90
2022-09-03T14:04:55.071Z,99.90
2022-09-03T14:07:25.966Z,99.90
2022-09-03T14:10:08.441Z,99.90
2022-09-03T14:12:37.838Z,99.90
2022-09-03T14:15:16.473Z,99.90
2022-09-03T14:18:01.798Z,99.90
2022-09-03T14:20:29.487Z,99.90
2022-09-03T14:22:56.134Z,99.90
2022-09-03T14:25:24.214Z,99.90
2022-09-03T14:27:51.322Z,99.90
2022-09-03T14:30:17.939Z,99.90
2022-09-03T14:33:13.701Z,99.90
2022-09-03T14:35:58.129Z,99.90
2022-09-03T14:38:49.647Z,99.90
2022-09-03T14:41:36.570Z,99.90
2022-09-03T14:44:15.463Z,99.90
2022-09-03T14:46:42.456Z,99.90
2022-09-03T14:49:28.122Z,99.90
2022-09-03T14:51:57.580Z,99.90
2022-09-03T14:54:27.027Z,99.90
2022-09-03T14:56:53.658Z,99.90
2022-09-03T14:59:23.492Z,99.90
2022-09-03T15:02:04.836Z,99.90
2022-09-03T15:04:43.449Z,99.90
2022-09-03T15:07:30.979Z,99.90
2022-09-03T15:10:12.933Z,99.90
2022-09-03T15:12:48.272Z,99.90
2022-09-03T15:15:19.667Z,99.90
2022-09-03T15:17:46.311Z,99.90
2022-09-03T15:20:45.222Z,99.90
2022-09-03T15:23:30.329Z,99.90
2022-09-03T15:26:24.736Z,99.90
2022-09-03T15:29:00.375Z,99.90
2022-09-03T15:31:45.402Z,99.90
2022-09-03T15:34:47.763Z,99.90
2022-09-03T15:37:23.404Z,99.90
2022-09-03T15:39:58.557Z,99.90
2022-09-03T15:42:27.316Z,99.90
2022-09-03T15:44:54.999Z,99.90
2022-09-03T15:47:50.926Z,99.90
2022-09-03T15:50:50.120Z,99.90
2022-09-03T15:53:27.338Z,99.90
2022-09-03T15:56:13.592Z,99.90
2022-09-03T15:58:43.648Z,99.90
2022-09-03T16:01:27.381Z,99.90
2022-09-03T16:03:59.602Z,99.90
2022-09-03T16:06:40.881Z,99.90
2022-09-03T16:09:27.789Z,99.90
2022-09-03T16:11:57.214Z,99.90
2022-09-03T16:14:36.316Z,99.90
2022-09-03T16:17:08.499Z,99.90
2022-09-03T16:19:46.886Z,99.90
2022-09-03T16:22:16.295Z,99.90
2022-09-03T16:24:47.559Z,99.90
2022-09-03T16:27:14.189Z,99.90
2022-09-03T16:29:41.114Z,99.90
2022-09-03T16:32:20.959Z,99.90
2022-09-03T16:35:03.375Z,99.90
2022-09-03T16:37:39.451Z,99.90
2022-09-03T16:40:06.590Z,99.90
2022-09-03T16:42:40.066Z,99.90
2022-09-03T16:45:06.678Z,99.90
2022-09-03T16:47:45.379Z,99.90
2022-09-03T16:50:12.255Z,99.90
2022-09-03T16:52:53.271Z,99.90
2022-09-03T16:55:22.103Z,99.90
2022-09-03T16:58:03.152Z,99.90
2022-09-03T17:00:48.821Z,99.90
2022-09-03T17:03:31.718Z,99.90
2022-09-03T17:06:01.408Z,99.90
2022-09-03T17:08:50.534Z,99.90
2022-09-03T17:11:35.996Z,99.90
2022-09-03T17:14:05.391Z,99.90
2022-09-03T17:16:52.480Z,99.90
2022-09-03T17:19:19.323Z,99.90
2022-09-03T17:22:05.891Z,99.90
2022-09-03T17:24:32.951Z,99.90
2022-09-03T17:27:04.287Z,99.90
2022-09-03T17:29:46.447Z,99.90
2022-09-03T17:32:16.274Z,99.90
2022-09-03T17:34:49.236Z,99.90
2022-09-03T17:37:18.922Z,99.90
2022-09-03T17:39:54.817Z,99.90
2022-09-03T17:42:38.642Z,99.90
2022-09-03T17:45:08.437Z,99.90
2022-09-03T17:47:41.606Z,99.90
2022-09-03T17:50:11.362Z,99.90
2022-09-03T17:52:54.101Z,99.90
2022-09-03T17:55:23.650Z,99.90
2022-09-03T17:57:53.074Z,99.90
2022-09-03T18:00:23.992Z,99.90
2022-09-03T18:02:54.539Z,99.90
2022-09-03T18:05:24.220Z,99.90
2022-09-03T18:07:53.706Z,99.90
2022-09-03T18:10:26.346Z,99.90
2022-09-03T18:13:23.797Z,99.90
2022-09-03T18:16:05.229Z,99.90
2022-09-03T18:18:33.016Z,99.90
2022-09-03T18:21:30.877Z,99.90
2022-09-03T18:24:19.337Z,99.90
2022-09-03T18:27:08.638Z,99.90
2022-09-03T18:30:08.584Z,99.90
2022-09-03T18:32:53.922Z,99.90
2022-09-03T18:35:39.409Z,99.90
2022-09-03T18:38:24.752Z,99.90
2022-09-03T18:41:17.549Z,99.90
2022-09-03T18:44:23.773Z,99.90
2022-09-03T18:50:23.485Z,99.90
2022-09-03T18:53:35.195Z,99.90
2022-09-03T18:56:26.346Z,99.90
2022-09-03T18:59:41.300Z,99.90
2022-09-03T19:02:34.981Z,99.90
2022-09-03T19:05:20.781Z,99.90
2022-09-03T19:08:14.238Z,99.90
2022-09-03T19:10:59.361Z,99.90
2022-09-03T19:13:44.834Z,99.90
2022-09-03T19:16:42.765Z,99.90
2022-09-03T19:19:47.186Z,99.90
2022-09-03T19:22:37.130Z,99.90
2022-09-03T19:25:24.615Z,99.90
2022-09-03T19:28:33.252Z,99.90
2022-09-03T19:31:37.104Z,99.90
2022-09-03T19:34:34.574Z,99.90
2022-09-03T19:37:40.708Z,99.90
2022-09-03T19:40:28.948Z,99.90
2022-09-03T19:43:26.387Z,99.90
2022-09-03T19:46:19.243Z,99.90
2022-09-03T19:49:10.904Z,99.90
2022-09-03T19:51:56.199Z,99.90
2022-09-03T19:54:42.598Z,99.90
2022-09-03T19:57:30.920Z,99.90
2022-09-03T20:00:17.697Z,99.90
2022-09-03T20:03:15.360Z,99.90
2022-09-03T20:06:00.903Z,99.90
2022-09-03T20:08:46.776Z,99.90
2022-09-03T20:11:21.361Z,99.90
2022-09-03T20:14:06.593Z,99.90
2022-09-03T20:16:48.344Z,99.90
2022-09-03T20:19:25.458Z,99.90
2022-09-03T20:22:01.471Z,99.90
2022-09-03T20:24:28.613Z,99.90
2022-09-03T20:27:04.856Z,99.90
2022-09-03T20:29:48.500Z,99.90
2022-09-03T20:32:33.688Z,99.90
2022-09-03T20:35:03.091Z,99.90
2022-09-03T20:37:43.349Z,99.90
2022-09-03T20:40:29.170Z,99.90
2022-09-03T20:43:14.434Z,99.90
2022-09-03T20:45:46.975Z,99.90
2022-09-03T20:48:17.026Z,99.90
2022-09-03T20:51:11.984Z,99.90
2022-09-03T20:53:57.766Z,99.90
2022-09-03T20:56:24.839Z,99.90
2022-09-03T20:59:02.045Z,99.90
2022-09-03T21:01:34.659Z,99.90
2022-09-03T21:04:04.809Z,99.90
2022-09-03T21:06:50.137Z,99.90
2022-09-03T21:09:38.346Z,99.90
2022-09-03T21:12:08.061Z,99.90
2022-09-03T21:14:38.041Z,99.90
2022-09-03T21:17:18.830Z,99.90
2022-09-03T21:19:55.413Z,99.90
2022-09-03T21:22:30.750Z,99.90
2022-09-03T21:25:13.155Z,99.90
2022-09-03T21:27:42.463Z,99.90
2022-09-03T21:30:09.867Z,99.90
2022-09-03T21:32:39.615Z,99.90
2022-09-03T21:35:21.864Z,99.90
2022-09-03T21:38:08.452Z,99.90
2022-09-03T21:40:36.394Z,99.90
2022-09-03T21:43:06.188Z,99.90
2022-09-03T21:45:40.469Z,99.90
2022-09-03T21:48:13.577Z,99.90
2022-09-03T21:50:40.189Z,99.90
2022-09-03T21:53:11.369Z,99.90
2022-09-03T21:55:50.039Z,99.90
2022-09-03T21:58:40.398Z,99.90
2022-09-03T22:01:12.498Z,99.90
2022-09-03T22:03:40.342Z,99.90
2022-09-03T22:06:11.158Z,99.90
2022-09-03T22:09:04.294Z,99.90
2022-09-03T22:11:49.587Z,99.90
2022-09-03T22:14:17.563Z,99.90
2022-09-03T22:16:50.503Z,99.90
2022-09-03T22:19:17.249Z,99.90
2022-09-03T22:21:53.385Z,99.90
2022-09-03T22:24:35.135Z,99.90
2022-09-03T22:27:05.360Z,99.90
2022-09-03T22:29:32.025Z,99.90
2022-09-03T22:32:24.972Z,99.90
2022-09-03T22:34:56.874Z,99.90
2022-09-03T22:37:32.344Z,99.90
2022-09-03T22:40:22.074Z,99.90
2022-09-03T22:42:49.305Z,99.90
2022-09-03T22:45:23.559Z,99.90
2022-09-03T22:47:58.321Z,99.90
2022-09-03T22:50:34.083Z,99.90
2022-09-03T22:53:00.734Z,99.90
2022-09-03T22:55:27.472Z,99.90
2022-09-03T22:58:00.521Z,99.90
2022-09-03T23:00:29.419Z,99.90
2022-09-03T23:03:07.958Z,99.90
2022-09-03T23:05:46.234Z,99.90
2022-09-03T23:08:21.891Z,99.90
2022-09-03T23:11:01.076Z,99.90
2022-09-03T23:13:48.666Z,99.90
2022-09-03T23:16:30.393Z,99.90
2022-09-03T23:18:59.731Z,99.90
2022-09-03T23:21:29.623Z,99.90
2022-09-03T23:23:59.645Z,99.90
2022-09-03T23:26:27.045Z,99.90
2022-09-03T23:28:57.834Z,99.90
2022-09-03T23:31:26.826Z,99.90
2022-09-03T23:33:54.712Z,99.90
2022-09-03T23:37:05.830Z,99.90
2022-09-03T23:39:50.300Z,99.90
2022-09-03T23:42:20.271Z,99.90
2022-09-03T23:44:46.882Z,99.90
2022-09-03T23:47:38.480Z,99.90
2022-09-03T23:50:05.102Z,99.90
2022-09-03T23:52:43.868Z,99.90
2022-09-03T23:55:10.507Z,99.90
2022-09-03T23:57:41.184Z,99.90
